KCPT

Cleburne Regional Airport

Cleburne, Texas, USA
METAR KCPT 191115Z AUTO 16004KT M1/4SM FG OVC002 11/11 A2991 RMK AO2
Observed Flight Rules
Dec-19 @ 11:15 UTC (25 minutes ago) Instrument Flight Rules
Wind Visibility Clouds Conditions
160° at 4 knots 1/4 miles
  • Overcast at 200' AGL
  • Fog
Temperatures Readings
Current 11°C / 52°F
Dewpoint 11°C / 52°F
Humidity 100%
Altimeter 29.91" Hg
Pressure 1013 hPa
Elevation 260
METAR KCPT 191115Z AUTO 16004KT M1/4SM FG OVC002 11/11 A2991 RMK AO2
Observed Flight Rules
Dec-19 @ 11:15 UTC
(25 minutes ago)
LIFR
Wind Visibility
160° at 4 knots 1/4 miles
Clouds
  • Overcast at 200' AGL
Conditions
  • Fog
Temperature Dewpoint
11°C / 52°F 11°C / 52°F
Humidity Altimeter Pressure
100% 29.91" Hg 1013 hPa